sensor_id;sensor_type;location;lat;lon;timestamp;P1;durP1;ratioP1;P2;durP2;ratioP2
61962;SDS011;47927;42.646;23.096;2022-08-19T00:00:20;6.13;;;3.95;;
61962;SDS011;47927;42.646;23.096;2022-08-19T00:02:46;4.32;;;3.42;;
61962;SDS011;47927;42.646;23.096;2022-08-19T00:05:13;8.48;;;3.92;;
61962;SDS011;47927;42.646;23.096;2022-08-19T00:07:40;5.78;;;3.55;;
61962;SDS011;47927;42.646;23.096;2022-08-19T00:10:08;5.65;;;3.70;;
61962;SDS011;47927;42.646;23.096;2022-08-19T00:12:35;8.25;;;3.67;;
61962;SDS011;47927;42.646;23.096;2022-08-19T00:15:03;5.05;;;3.78;;
61962;SDS011;47927;42.646;23.096;2022-08-19T00:17:38;5.40;;;4.15;;
61962;SDS011;47927;42.646;23.096;2022-08-19T00:20:05;5.30;;;3.50;;
61962;SDS011;47927;42.646;23.096;2022-08-19T00:22:32;7.03;;;4.00;;
61962;SDS011;47927;42.646;23.096;2022-08-19T00:24:58;5.75;;;4.13;;
61962;SDS011;47927;42.646;23.096;2022-08-19T00:27:24;5.30;;;3.70;;
61962;SDS011;47927;42.646;23.096;2022-08-19T00:29:49;6.05;;;3.30;;
61962;SDS011;47927;42.646;23.096;2022-08-19T00:32:16;7.53;;;3.55;;
61962;SDS011;47927;42.646;23.096;2022-08-19T00:34:41;5.18;;;3.42;;
61962;SDS011;47927;42.646;23.096;2022-08-19T00:37:08;5.03;;;3.58;;
61962;SDS011;47927;42.646;23.096;2022-08-19T00:39:34;9.30;;;3.70;;
61962;SDS011;47927;42.646;23.096;2022-08-19T00:41:59;7.45;;;3.83;;
61962;SDS011;47927;42.646;23.096;2022-08-19T00:44:26;8.60;;;4.03;;
61962;SDS011;47927;42.646;23.096;2022-08-19T00:46:54;6.35;;;3.53;;
61962;SDS011;47927;42.646;23.096;2022-08-19T00:52:11;5.03;;;3.35;;
61962;SDS011;47927;42.646;23.096;2022-08-19T00:54:39;5.93;;;3.67;;
61962;SDS011;47927;42.646;23.096;2022-08-19T00:57:08;4.93;;;3.42;;
61962;SDS011;47927;42.646;23.096;2022-08-19T00:59:40;4.97;;;3.60;;
61962;SDS011;47927;42.646;23.096;2022-08-19T01:02:08;5.00;;;3.45;;
61962;SDS011;47927;42.646;23.096;2022-08-19T01:04:34;9.05;;;4.13;;
61962;SDS011;47927;42.646;23.096;2022-08-19T01:07:01;6.28;;;3.80;;
61962;SDS011;47927;42.646;23.096;2022-08-19T01:09:28;5.78;;;3.53;;
61962;SDS011;47927;42.646;23.096;2022-08-19T01:11:54;6.10;;;3.53;;
61962;SDS011;47927;42.646;23.096;2022-08-19T01:14:21;11.15;;;3.70;;
61962;SDS011;47927;42.646;23.096;2022-08-19T01:16:47;5.03;;;3.67;;
61962;SDS011;47927;42.646;23.096;2022-08-19T01:19:35;5.30;;;3.45;;
61962;SDS011;47927;42.646;23.096;2022-08-19T01:22:12;7.00;;;4.10;;
61962;SDS011;47927;42.646;23.096;2022-08-19T01:24:44;5.97;;;3.58;;
61962;SDS011;47927;42.646;23.096;2022-08-19T01:27:10;5.70;;;3.30;;
61962;SDS011;47927;42.646;23.096;2022-08-19T01:29:37;7.30;;;3.70;;
61962;SDS011;47927;42.646;23.096;2022-08-19T01:32:05;5.38;;;3.47;;
61962;SDS011;47927;42.646;23.096;2022-08-19T01:34:32;5.53;;;3.63;;
61962;SDS011;47927;42.646;23.096;2022-08-19T01:36:59;4.50;;;3.60;;
61962;SDS011;47927;42.646;23.096;2022-08-19T01:39:30;9.32;;;3.78;;
61962;SDS011;47927;42.646;23.096;2022-08-19T01:41:55;5.45;;;3.83;;
61962;SDS011;47927;42.646;23.096;2022-08-19T01:44:21;5.85;;;3.22;;
61962;SDS011;47927;42.646;23.096;2022-08-19T01:46:49;7.45;;;4.00;;
61962;SDS011;47927;42.646;23.096;2022-08-19T01:49:17;4.70;;;3.63;;
61962;SDS011;47927;42.646;23.096;2022-08-19T01:51:44;4.90;;;3.13;;
61962;SDS011;47927;42.646;23.096;2022-08-19T01:54:11;6.18;;;3.58;;
61962;SDS011;47927;42.646;23.096;2022-08-19T01:56:38;6.80;;;4.03;;
61962;SDS011;47927;42.646;23.096;2022-08-19T01:59:09;8.23;;;3.67;;
61962;SDS011;47927;42.646;23.096;2022-08-19T02:01:38;6.68;;;3.42;;
61962;SDS011;47927;42.646;23.096;2022-08-19T02:04:03;6.57;;;4.10;;
61962;SDS011;47927;42.646;23.096;2022-08-19T02:06:30;6.47;;;3.75;;
61962;SDS011;47927;42.646;23.096;2022-08-19T02:08:56;5.07;;;3.47;;
61962;SDS011;47927;42.646;23.096;2022-08-19T02:11:41;7.93;;;4.47;;
61962;SDS011;47927;42.646;23.096;2022-08-19T02:14:07;5.55;;;3.50;;
61962;SDS011;47927;42.646;23.096;2022-08-19T02:16:33;5.50;;;4.20;;
61962;SDS011;47927;42.646;23.096;2022-08-19T02:19:00;5.90;;;3.88;;
61962;SDS011;47927;42.646;23.096;2022-08-19T02:21:26;5.22;;;3.90;;
61962;SDS011;47927;42.646;23.096;2022-08-19T02:23:51;5.78;;;4.15;;
61962;SDS011;47927;42.646;23.096;2022-08-19T02:26:17;5.30;;;3.80;;
61962;SDS011;47927;42.646;23.096;2022-08-19T02:28:44;6.35;;;4.05;;
61962;SDS011;47927;42.646;23.096;2022-08-19T02:31:14;6.38;;;4.18;;
61962;SDS011;47927;42.646;23.096;2022-08-19T02:33:42;10.90;;;4.43;;
61962;SDS011;47927;42.646;23.096;2022-08-19T02:36:09;5.53;;;4.20;;
61962;SDS011;47927;42.646;23.096;2022-08-19T02:38:36;5.10;;;3.55;;
61962;SDS011;47927;42.646;23.096;2022-08-19T02:41:11;4.68;;;3.63;;
61962;SDS011;47927;42.646;23.096;2022-08-19T02:43:42;4.97;;;3.97;;
61962;SDS011;47927;42.646;23.096;2022-08-19T02:46:11;5.65;;;4.20;;
61962;SDS011;47927;42.646;23.096;2022-08-19T02:48:43;6.00;;;4.00;;
61962;SDS011;47927;42.646;23.096;2022-08-19T02:51:08;6.63;;;3.75;;
61962;SDS011;47927;42.646;23.096;2022-08-19T02:53:41;5.20;;;3.78;;
61962;SDS011;47927;42.646;23.096;2022-08-19T02:56:07;7.40;;;4.28;;
61962;SDS011;47927;42.646;23.096;2022-08-19T02:58:33;6.10;;;3.67;;
61962;SDS011;47927;42.646;23.096;2022-08-19T03:00:58;5.20;;;3.65;;
61962;SDS011;47927;42.646;23.096;2022-08-19T03:03:24;6.30;;;4.15;;
61962;SDS011;47927;42.646;23.096;2022-08-19T03:05:50;5.40;;;4.20;;
61962;SDS011;47927;42.646;23.096;2022-08-19T03:08:16;5.65;;;3.80;;
61962;SDS011;47927;42.646;23.096;2022-08-19T03:10:42;7.45;;;4.60;;
61962;SDS011;47927;42.646;23.096;2022-08-19T03:13:12;6.25;;;4.20;;
61962;SDS011;47927;42.646;23.096;2022-08-19T03:15:41;6.32;;;4.20;;
61962;SDS011;47927;42.646;23.096;2022-08-19T03:18:08;5.85;;;3.88;;
61962;SDS011;47927;42.646;23.096;2022-08-19T03:20:39;5.63;;;4.10;;
61962;SDS011;47927;42.646;23.096;2022-08-19T03:23:09;7.35;;;3.95;;
61962;SDS011;47927;42.646;23.096;2022-08-19T03:25:38;8.50;;;4.03;;
61962;SDS011;47927;42.646;23.096;2022-08-19T03:28:11;6.05;;;4.07;;
61962;SDS011;47927;42.646;23.096;2022-08-19T03:30:39;8.45;;;4.22;;
61962;SDS011;47927;42.646;23.096;2022-08-19T03:33:07;5.50;;;4.18;;
61962;SDS011;47927;42.646;23.096;2022-08-19T03:35:33;7.75;;;3.92;;
61962;SDS011;47927;42.646;23.096;2022-08-19T03:38:02;8.02;;;5.00;;
61962;SDS011;47927;42.646;23.096;2022-08-19T03:40:28;5.75;;;3.97;;
61962;SDS011;47927;42.646;23.096;2022-08-19T03:42:55;6.20;;;4.45;;
61962;SDS011;47927;42.646;23.096;2022-08-19T03:45:22;4.85;;;3.85;;
61962;SDS011;47927;42.646;23.096;2022-08-19T03:47:48;6.43;;;4.18;;
61962;SDS011;47927;42.646;23.096;2022-08-19T03:50:14;6.07;;;4.22;;
61962;SDS011;47927;42.646;23.096;2022-08-19T03:52:40;6.03;;;4.38;;
61962;SDS011;47927;42.646;23.096;2022-08-19T03:55:05;7.32;;;4.63;;
61962;SDS011;47927;42.646;23.096;2022-08-19T03:57:32;8.23;;;4.80;;
61962;SDS011;47927;42.646;23.096;2022-08-19T03:59:59;6.93;;;4.45;;
61962;SDS011;47927;42.646;23.096;2022-08-19T04:02:26;5.30;;;4.47;;
61962;SDS011;47927;42.646;23.096;2022-08-19T04:04:52;8.65;;;4.25;;
61962;SDS011;47927;42.646;23.096;2022-08-19T04:07:19;7.00;;;4.30;;
61962;SDS011;47927;42.646;23.096;2022-08-19T04:09:46;5.90;;;3.80;;
61962;SDS011;47927;42.646;23.096;2022-08-19T04:12:12;7.13;;;3.80;;
61962;SDS011;47927;42.646;23.096;2022-08-19T04:14:38;9.15;;;4.25;;
61962;SDS011;47927;42.646;23.096;2022-08-19T04:17:04;6.00;;;4.10;;
61962;SDS011;47927;42.646;23.096;2022-08-19T04:19:30;7.03;;;3.88;;
61962;SDS011;47927;42.646;23.096;2022-08-19T04:21:57;4.95;;;3.80;;
61962;SDS011;47927;42.646;23.096;2022-08-19T04:24:23;6.60;;;3.90;;
61962;SDS011;47927;42.646;23.096;2022-08-19T04:26:49;8.27;;;3.65;;
61962;SDS011;47927;42.646;23.096;2022-08-19T04:29:16;5.40;;;3.70;;
61962;SDS011;47927;42.646;23.096;2022-08-19T04:31:44;5.43;;;3.70;;
61962;SDS011;47927;42.646;23.096;2022-08-19T04:34:11;4.80;;;3.50;;
61962;SDS011;47927;42.646;23.096;2022-08-19T04:36:39;5.70;;;3.80;;
61962;SDS011;47927;42.646;23.096;2022-08-19T04:39:07;5.38;;;3.85;;
61962;SDS011;47927;42.646;23.096;2022-08-19T04:41:36;4.75;;;3.42;;
61962;SDS011;47927;42.646;23.096;2022-08-19T04:44:20;5.45;;;3.83;;
61962;SDS011;47927;42.646;23.096;2022-08-19T04:46:46;6.57;;;3.45;;
61962;SDS011;47927;42.646;23.096;2022-08-19T04:49:14;5.85;;;3.38;;
61962;SDS011;47927;42.646;23.096;2022-08-19T04:51:42;10.02;;;3.38;;
61962;SDS011;47927;42.646;23.096;2022-08-19T04:54:09;5.28;;;3.58;;
61962;SDS011;47927;42.646;23.096;2022-08-19T04:56:36;5.25;;;3.40;;
61962;SDS011;47927;42.646;23.096;2022-08-19T04:59:03;4.95;;;3.30;;
61962;SDS011;47927;42.646;23.096;2022-08-19T05:01:30;7.13;;;3.70;;
61962;SDS011;47927;42.646;23.096;2022-08-19T05:04:01;8.33;;;3.73;;
61962;SDS011;47927;42.646;23.096;2022-08-19T05:06:30;4.78;;;3.58;;
61962;SDS011;47927;42.646;23.096;2022-08-19T05:09:03;7.15;;;3.50;;
61962;SDS011;47927;42.646;23.096;2022-08-19T05:11:31;6.93;;;3.83;;
61962;SDS011;47927;42.646;23.096;2022-08-19T05:13:58;6.30;;;3.47;;
61962;SDS011;47927;42.646;23.096;2022-08-19T05:16:25;8.02;;;3.35;;
61962;SDS011;47927;42.646;23.096;2022-08-19T05:18:51;6.97;;;3.60;;
61962;SDS011;47927;42.646;23.096;2022-08-19T05:21:41;6.53;;;3.80;;
61962;SDS011;47927;42.646;23.096;2022-08-19T05:24:26;9.18;;;4.00;;
61962;SDS011;47927;42.646;23.096;2022-08-19T05:26:53;10.68;;;3.80;;
61962;SDS011;47927;42.646;23.096;2022-08-19T05:29:22;5.57;;;3.50;;
61962;SDS011;47927;42.646;23.096;2022-08-19T05:31:50;10.25;;;3.72;;
61962;SDS011;47927;42.646;23.096;2022-08-19T05:34:17;4.88;;;3.38;;
61962;SDS011;47927;42.646;23.096;2022-08-19T05:36:46;6.70;;;3.50;;
61962;SDS011;47927;42.646;23.096;2022-08-19T05:39:17;7.82;;;3.40;;
61962;SDS011;47927;42.646;23.096;2022-08-19T05:41:45;8.73;;;3.40;;
61962;SDS011;47927;42.646;23.096;2022-08-19T05:44:13;7.00;;;3.70;;
61962;SDS011;47927;42.646;23.096;2022-08-19T05:46:40;6.78;;;3.42;;
61962;SDS011;47927;42.646;23.096;2022-08-19T05:49:08;6.50;;;3.35;;
61962;SDS011;47927;42.646;23.096;2022-08-19T05:51:35;4.72;;;3.40;;
61962;SDS011;47927;42.646;23.096;2022-08-19T05:54:02;4.57;;;3.17;;
61962;SDS011;47927;42.646;23.096;2022-08-19T05:56:30;4.78;;;3.00;;
61962;SDS011;47927;42.646;23.096;2022-08-19T05:58:57;9.05;;;3.50;;
61962;SDS011;47927;42.646;23.096;2022-08-19T06:01:24;6.35;;;3.63;;
61962;SDS011;47927;42.646;23.096;2022-08-19T06:03:50;7.47;;;3.78;;
61962;SDS011;47927;42.646;23.096;2022-08-19T06:06:16;4.80;;;3.20;;
61962;SDS011;47927;42.646;23.096;2022-08-19T06:08:42;7.15;;;3.22;;
61962;SDS011;47927;42.646;23.096;2022-08-19T06:13:51;7.07;;;3.28;;
61962;SDS011;47927;42.646;23.096;2022-08-19T06:16:18;4.30;;;3.00;;
61962;SDS011;47927;42.646;23.096;2022-08-19T06:18:51;5.20;;;3.17;;
61962;SDS011;47927;42.646;23.096;2022-08-19T06:21:21;7.45;;;3.25;;
61962;SDS011;47927;42.646;23.096;2022-08-19T06:23:48;5.15;;;2.95;;
61962;SDS011;47927;42.646;23.096;2022-08-19T06:26:16;5.85;;;3.05;;
61962;SDS011;47927;42.646;23.096;2022-08-19T06:28:43;4.95;;;2.97;;
61962;SDS011;47927;42.646;23.096;2022-08-19T06:33:44;5.40;;;3.17;;
61962;SDS011;47927;42.646;23.096;2022-08-19T06:36:20;5.82;;;3.20;;
61962;SDS011;47927;42.646;23.096;2022-08-19T06:38:55;9.07;;;4.00;;
61962;SDS011;47927;42.646;23.096;2022-08-19T06:41:23;6.35;;;3.40;;
61962;SDS011;47927;42.646;23.096;2022-08-19T06:43:52;5.40;;;2.88;;
61962;SDS011;47927;42.646;23.096;2022-08-19T06:46:19;5.03;;;3.20;;
61962;SDS011;47927;42.646;23.096;2022-08-19T06:48:46;6.18;;;3.00;;
61962;SDS011;47927;42.646;23.096;2022-08-19T06:51:14;6.47;;;3.20;;
61962;SDS011;47927;42.646;23.096;2022-08-19T06:53:43;5.50;;;3.25;;
61962;SDS011;47927;42.646;23.096;2022-08-19T06:56:11;9.30;;;3.30;;
61962;SDS011;47927;42.646;23.096;2022-08-19T06:58:40;7.75;;;3.33;;
61962;SDS011;47927;42.646;23.096;2022-08-19T07:01:06;10.88;;;3.55;;
61962;SDS011;47927;42.646;23.096;2022-08-19T07:03:33;9.45;;;3.50;;
61962;SDS011;47927;42.646;23.096;2022-08-19T07:08:33;9.13;;;3.22;;
61962;SDS011;47927;42.646;23.096;2022-08-19T07:11:00;8.38;;;3.20;;
61962;SDS011;47927;42.646;23.096;2022-08-19T07:13:26;7.50;;;3.00;;
61962;SDS011;47927;42.646;23.096;2022-08-19T07:15:51;10.07;;;2.90;;
61962;SDS011;47927;42.646;23.096;2022-08-19T07:18:18;10.60;;;3.50;;
61962;SDS011;47927;42.646;23.096;2022-08-19T07:20:45;13.05;;;3.45;;
61962;SDS011;47927;42.646;23.096;2022-08-19T07:23:11;13.82;;;3.58;;
61962;SDS011;47927;42.646;23.096;2022-08-19T07:25:37;25.27;;;3.45;;
61962;SDS011;47927;42.646;23.096;2022-08-19T07:28:03;11.80;;;3.47;;
61962;SDS011;47927;42.646;23.096;2022-08-19T07:30:30;18.55;;;3.72;;
61962;SDS011;47927;42.646;23.096;2022-08-19T07:32:56;17.17;;;3.50;;
61962;SDS011;47927;42.646;23.096;2022-08-19T07:35:22;16.85;;;3.58;;
61962;SDS011;47927;42.646;23.096;2022-08-19T07:37:48;14.47;;;3.27;;
61962;SDS011;47927;42.646;23.096;2022-08-19T07:40:14;19.50;;;3.55;;
61962;SDS011;47927;42.646;23.096;2022-08-19T07:42:40;11.07;;;3.13;;
61962;SDS011;47927;42.646;23.096;2022-08-19T07:45:06;10.20;;;3.15;;
61962;SDS011;47927;42.646;23.096;2022-08-19T07:47:33;6.13;;;2.90;;
61962;SDS011;47927;42.646;23.096;2022-08-19T07:49:58;6.97;;;3.10;;
61962;SDS011;47927;42.646;23.096;2022-08-19T07:52:24;10.82;;;3.03;;
61962;SDS011;47927;42.646;23.096;2022-08-19T07:54:49;10.75;;;3.15;;
61962;SDS011;47927;42.646;23.096;2022-08-19T07:57:15;7.28;;;3.53;;
61962;SDS011;47927;42.646;23.096;2022-08-19T07:59:41;8.98;;;2.92;;
61962;SDS011;47927;42.646;23.096;2022-08-19T08:02:07;6.70;;;2.90;;
61962;SDS011;47927;42.646;23.096;2022-08-19T08:04:34;6.20;;;2.97;;
61962;SDS011;47927;42.646;23.096;2022-08-19T08:07:18;6.60;;;3.08;;
61962;SDS011;47927;42.646;23.096;2022-08-19T08:10:04;5.80;;;2.78;;
61962;SDS011;47927;42.646;23.096;2022-08-19T08:12:33;5.80;;;2.95;;
61962;SDS011;47927;42.646;23.096;2022-08-19T08:15:09;5.85;;;3.28;;
61962;SDS011;47927;42.646;23.096;2022-08-19T08:17:36;6.18;;;3.20;;
61962;SDS011;47927;42.646;23.096;2022-08-19T08:20:05;6.95;;;2.80;;
61962;SDS011;47927;42.646;23.096;2022-08-19T08:22:34;4.68;;;2.70;;
61962;SDS011;47927;42.646;23.096;2022-08-19T08:25:20;5.07;;;2.85;;
61962;SDS011;47927;42.646;23.096;2022-08-19T08:27:47;5.00;;;2.70;;
61962;SDS011;47927;42.646;23.096;2022-08-19T08:30:17;3.88;;;2.70;;
61962;SDS011;47927;42.646;23.096;2022-08-19T08:32:47;5.90;;;2.80;;
61962;SDS011;47927;42.646;23.096;2022-08-19T08:35:14;4.70;;;2.80;;
61962;SDS011;47927;42.646;23.096;2022-08-19T08:37:42;4.13;;;3.03;;
61962;SDS011;47927;42.646;23.096;2022-08-19T08:40:16;6.65;;;2.97;;
61962;SDS011;47927;42.646;23.096;2022-08-19T08:42:51;10.90;;;2.67;;
61962;SDS011;47927;42.646;23.096;2022-08-19T08:45:27;7.35;;;2.88;;
61962;SDS011;47927;42.646;23.096;2022-08-19T08:47:54;5.38;;;2.58;;
61962;SDS011;47927;42.646;23.096;2022-08-19T08:50:27;4.30;;;2.70;;
61962;SDS011;47927;42.646;23.096;2022-08-19T08:53:01;5.90;;;2.85;;
61962;SDS011;47927;42.646;23.096;2022-08-19T08:55:30;4.55;;;2.80;;
61962;SDS011;47927;42.646;23.096;2022-08-19T08:58:01;4.90;;;2.70;;
61962;SDS011;47927;42.646;23.096;2022-08-19T09:00:37;3.88;;;2.58;;
61962;SDS011;47927;42.646;23.096;2022-08-19T09:03:39;6.00;;;2.58;;
61962;SDS011;47927;42.646;23.096;2022-08-19T09:06:04;4.68;;;3.05;;
61962;SDS011;47927;42.646;23.096;2022-08-19T09:08:40;6.75;;;3.38;;
61962;SDS011;47927;42.646;23.096;2022-08-19T09:11:19;5.72;;;2.75;;
61962;SDS011;47927;42.646;23.096;2022-08-19T09:16:33;8.70;;;2.53;;
61962;SDS011;47927;42.646;23.096;2022-08-19T09:19:03;4.40;;;2.38;;
61962;SDS011;47927;42.646;23.096;2022-08-19T09:21:30;7.10;;;2.70;;
61962;SDS011;47927;42.646;23.096;2022-08-19T09:23:57;7.45;;;2.40;;
61962;SDS011;47927;42.646;23.096;2022-08-19T09:26:24;3.73;;;2.50;;
61962;SDS011;47927;42.646;23.096;2022-08-19T09:28:51;4.68;;;2.63;;
61962;SDS011;47927;42.646;23.096;2022-08-19T09:31:22;5.32;;;2.50;;
61962;SDS011;47927;42.646;23.096;2022-08-19T09:33:50;6.43;;;2.60;;
61962;SDS011;47927;42.646;23.096;2022-08-19T09:36:17;4.45;;;2.15;;
61962;SDS011;47927;42.646;23.096;2022-08-19T09:38:44;4.40;;;2.40;;
61962;SDS011;47927;42.646;23.096;2022-08-19T09:41:12;3.80;;;2.10;;
61962;SDS011;47927;42.646;23.096;2022-08-19T09:43:40;4.72;;;2.53;;
61962;SDS011;47927;42.646;23.096;2022-08-19T09:46:07;6.53;;;2.25;;
61962;SDS011;47927;42.646;23.096;2022-08-19T09:48:53;5.43;;;2.20;;
61962;SDS011;47927;42.646;23.096;2022-08-19T09:51:23;3.20;;;1.92;;
61962;SDS011;47927;42.646;23.096;2022-08-19T09:53:51;6.13;;;2.55;;
61962;SDS011;47927;42.646;23.096;2022-08-19T09:56:19;3.60;;;2.10;;
61962;SDS011;47927;42.646;23.096;2022-08-19T09:58:45;8.35;;;2.50;;
61962;SDS011;47927;42.646;23.096;2022-08-19T10:01:15;5.13;;;2.80;;
61962;SDS011;47927;42.646;23.096;2022-08-19T10:03:42;7.65;;;2.35;;
61962;SDS011;47927;42.646;23.096;2022-08-19T10:06:08;4.18;;;2.67;;
61962;SDS011;47927;42.646;23.096;2022-08-19T10:08:35;8.02;;;2.72;;
61962;SDS011;47927;42.646;23.096;2022-08-19T10:11:02;7.85;;;3.20;;
61962;SDS011;47927;42.646;23.096;2022-08-19T10:13:29;6.15;;;2.35;;
61962;SDS011;47927;42.646;23.096;2022-08-19T10:16:01;8.02;;;2.92;;
61962;SDS011;47927;42.646;23.096;2022-08-19T10:18:29;5.68;;;2.63;;
61962;SDS011;47927;42.646;23.096;2022-08-19T10:21:02;5.65;;;2.95;;
61962;SDS011;47927;42.646;23.096;2022-08-19T10:23:34;4.82;;;2.72;;
61962;SDS011;47927;42.646;23.096;2022-08-19T10:26:04;6.75;;;2.90;;
61962;SDS011;47927;42.646;23.096;2022-08-19T10:28:32;5.57;;;3.17;;
61962;SDS011;47927;42.646;23.096;2022-08-19T10:31:02;11.90;;;3.58;;
61962;SDS011;47927;42.646;23.096;2022-08-19T10:33:30;8.15;;;2.80;;
61962;SDS011;47927;42.646;23.096;2022-08-19T10:35:59;4.90;;;3.05;;
61962;SDS011;47927;42.646;23.096;2022-08-19T10:38:26;5.20;;;3.00;;
61962;SDS011;47927;42.646;23.096;2022-08-19T10:40:53;6.22;;;3.17;;
61962;SDS011;47927;42.646;23.096;2022-08-19T10:43:19;6.07;;;3.35;;
61962;SDS011;47927;42.646;23.096;2022-08-19T10:45:51;6.72;;;3.38;;
61962;SDS011;47927;42.646;23.096;2022-08-19T10:48:19;5.97;;;2.72;;
61962;SDS011;47927;42.646;23.096;2022-08-19T10:50:44;7.13;;;3.00;;
61962;SDS011;47927;42.646;23.096;2022-08-19T10:53:28;6.00;;;3.28;;
61962;SDS011;47927;42.646;23.096;2022-08-19T10:55:53;8.05;;;3.20;;
61962;SDS011;47927;42.646;23.096;2022-08-19T10:58:37;8.45;;;3.25;;
61962;SDS011;47927;42.646;23.096;2022-08-19T11:01:03;10.65;;;2.92;;
61962;SDS011;47927;42.646;23.096;2022-08-19T11:03:28;5.57;;;2.70;;
61962;SDS011;47927;42.646;23.096;2022-08-19T11:05:59;6.22;;;2.75;;
61962;SDS011;47927;42.646;23.096;2022-08-19T11:08:26;5.35;;;2.72;;
61962;SDS011;47927;42.646;23.096;2022-08-19T11:10:52;5.05;;;2.70;;
61962;SDS011;47927;42.646;23.096;2022-08-19T11:13:22;5.63;;;2.75;;
61962;SDS011;47927;42.646;23.096;2022-08-19T11:15:55;4.78;;;2.78;;
61962;SDS011;47927;42.646;23.096;2022-08-19T11:18:25;6.45;;;2.92;;
61962;SDS011;47927;42.646;23.096;2022-08-19T11:20:51;6.60;;;2.70;;
61962;SDS011;47927;42.646;23.096;2022-08-19T11:23:17;7.60;;;2.80;;
61962;SDS011;47927;42.646;23.096;2022-08-19T11:25:44;7.55;;;3.00;;
61962;SDS011;47927;42.646;23.096;2022-08-19T11:28:10;5.53;;;2.90;;
61962;SDS011;47927;42.646;23.096;2022-08-19T11:30:37;6.60;;;2.67;;
61962;SDS011;47927;42.646;23.096;2022-08-19T11:33:03;5.47;;;2.63;;
61962;SDS011;47927;42.646;23.096;2022-08-19T11:35:29;4.55;;;2.92;;
61962;SDS011;47927;42.646;23.096;2022-08-19T11:37:55;4.22;;;2.75;;
61962;SDS011;47927;42.646;23.096;2022-08-19T11:40:22;4.37;;;2.70;;
61962;SDS011;47927;42.646;23.096;2022-08-19T11:42:48;6.25;;;2.90;;
61962;SDS011;47927;42.646;23.096;2022-08-19T11:45:20;7.95;;;3.00;;
61962;SDS011;47927;42.646;23.096;2022-08-19T11:47:50;6.20;;;2.72;;
61962;SDS011;47927;42.646;23.096;2022-08-19T11:50:16;6.57;;;2.90;;
61962;SDS011;47927;42.646;23.096;2022-08-19T11:52:42;4.20;;;2.90;;
61962;SDS011;47927;42.646;23.096;2022-08-19T11:55:10;6.90;;;3.03;;
61962;SDS011;47927;42.646;23.096;2022-08-19T11:57:37;7.93;;;3.30;;
61962;SDS011;47927;42.646;23.096;2022-08-19T12:00:03;11.45;;;2.92;;
61962;SDS011;47927;42.646;23.096;2022-08-19T12:02:31;6.70;;;3.17;;
61962;SDS011;47927;42.646;23.096;2022-08-19T12:04:56;4.68;;;2.90;;
61962;SDS011;47927;42.646;23.096;2022-08-19T12:07:22;8.65;;;2.75;;
61962;SDS011;47927;42.646;23.096;2022-08-19T12:09:48;10.02;;;3.17;;
61962;SDS011;47927;42.646;23.096;2022-08-19T12:12:13;7.57;;;3.08;;
61962;SDS011;47927;42.646;23.096;2022-08-19T12:14:39;7.30;;;3.00;;
61962;SDS011;47927;42.646;23.096;2022-08-19T12:17:05;9.57;;;3.25;;
61962;SDS011;47927;42.646;23.096;2022-08-19T12:19:32;5.07;;;2.97;;
61962;SDS011;47927;42.646;23.096;2022-08-19T12:21:59;9.25;;;3.03;;
61962;SDS011;47927;42.646;23.096;2022-08-19T12:24:32;5.72;;;2.90;;
61962;SDS011;47927;42.646;23.096;2022-08-19T12:26:58;7.10;;;2.88;;
61962;SDS011;47927;42.646;23.096;2022-08-19T12:29:26;6.70;;;2.70;;
61962;SDS011;47927;42.646;23.096;2022-08-19T12:32:13;6.85;;;2.80;;
61962;SDS011;47927;42.646;23.096;2022-08-19T12:34:38;5.30;;;2.80;;
61962;SDS011;47927;42.646;23.096;2022-08-19T12:37:05;6.90;;;2.92;;
61962;SDS011;47927;42.646;23.096;2022-08-19T12:39:39;4.63;;;2.55;;
61962;SDS011;47927;42.646;23.096;2022-08-19T12:42:07;6.07;;;2.78;;
61962;SDS011;47927;42.646;23.096;2022-08-19T12:44:34;8.45;;;3.00;;
61962;SDS011;47927;42.646;23.096;2022-08-19T12:47:00;6.55;;;2.92;;
61962;SDS011;47927;42.646;23.096;2022-08-19T12:49:30;7.38;;;2.83;;
61962;SDS011;47927;42.646;23.096;2022-08-19T12:51:59;10.32;;;3.80;;
61962;SDS011;47927;42.646;23.096;2022-08-19T12:54:25;6.07;;;2.58;;
61962;SDS011;47927;42.646;23.096;2022-08-19T12:56:51;6.15;;;3.17;;
61962;SDS011;47927;42.646;23.096;2022-08-19T12:59:17;7.32;;;2.80;;
61962;SDS011;47927;42.646;23.096;2022-08-19T13:01:45;7.03;;;2.80;;
61962;SDS011;47927;42.646;23.096;2022-08-19T13:04:11;10.48;;;3.17;;
61962;SDS011;47927;42.646;23.096;2022-08-19T13:06:37;7.50;;;2.95;;
61962;SDS011;47927;42.646;23.096;2022-08-19T13:09:03;6.38;;;2.78;;
61962;SDS011;47927;42.646;23.096;2022-08-19T13:11:29;5.45;;;3.40;;
61962;SDS011;47927;42.646;23.096;2022-08-19T13:13:58;7.18;;;3.33;;
61962;SDS011;47927;42.646;23.096;2022-08-19T13:16:25;7.47;;;3.33;;
61962;SDS011;47927;42.646;23.096;2022-08-19T13:18:52;6.53;;;2.83;;
61962;SDS011;47927;42.646;23.096;2022-08-19T13:21:20;9.57;;;3.60;;
61962;SDS011;47927;42.646;23.096;2022-08-19T13:24:08;6.97;;;3.05;;
61962;SDS011;47927;42.646;23.096;2022-08-19T13:26:34;6.13;;;3.03;;
61962;SDS011;47927;42.646;23.096;2022-08-19T13:28:59;7.53;;;3.10;;
61962;SDS011;47927;42.646;23.096;2022-08-19T13:31:44;5.70;;;2.95;;
61962;SDS011;47927;42.646;23.096;2022-08-19T13:34:29;7.68;;;3.10;;
61962;SDS011;47927;42.646;23.096;2022-08-19T13:36:58;8.25;;;3.60;;
61962;SDS011;47927;42.646;23.096;2022-08-19T13:39:24;6.57;;;3.00;;
61962;SDS011;47927;42.646;23.096;2022-08-19T13:41:50;7.53;;;3.08;;
61962;SDS011;47927;42.646;23.096;2022-08-19T13:44:16;6.68;;;3.13;;
61962;SDS011;47927;42.646;23.096;2022-08-19T13:46:46;7.00;;;2.92;;
61962;SDS011;47927;42.646;23.096;2022-08-19T13:49:13;11.18;;;3.20;;
61962;SDS011;47927;42.646;23.096;2022-08-19T13:51:40;9.13;;;3.10;;
61962;SDS011;47927;42.646;23.096;2022-08-19T13:54:08;6.82;;;3.20;;
61962;SDS011;47927;42.646;23.096;2022-08-19T13:56:35;8.68;;;3.30;;
61962;SDS011;47927;42.646;23.096;2022-08-19T13:59:05;10.50;;;3.10;;
61962;SDS011;47927;42.646;23.096;2022-08-19T14:01:31;6.68;;;3.28;;
61962;SDS011;47927;42.646;23.096;2022-08-19T14:03:57;6.32;;;2.85;;
61962;SDS011;47927;42.646;23.096;2022-08-19T14:06:22;9.13;;;3.38;;
61962;SDS011;47927;42.646;23.096;2022-08-19T14:08:48;14.00;;;3.42;;
61962;SDS011;47927;42.646;23.096;2022-08-19T14:11:14;7.28;;;3.50;;
61962;SDS011;47927;42.646;23.096;2022-08-19T14:13:40;4.93;;;3.33;;
61962;SDS011;47927;42.646;23.096;2022-08-19T14:16:07;9.48;;;4.10;;
61962;SDS011;47927;42.646;23.096;2022-08-19T14:18:34;6.18;;;3.28;;
61962;SDS011;47927;42.646;23.096;2022-08-19T14:20:59;8.43;;;3.00;;
61962;SDS011;47927;42.646;23.096;2022-08-19T14:23:25;6.30;;;3.85;;
61962;SDS011;47927;42.646;23.096;2022-08-19T14:25:51;8.35;;;3.25;;
61962;SDS011;47927;42.646;23.096;2022-08-19T14:28:16;5.30;;;2.88;;
61962;SDS011;47927;42.646;23.096;2022-08-19T14:30:42;6.45;;;3.33;;
61962;SDS011;47927;42.646;23.096;2022-08-19T14:33:09;6.07;;;3.65;;
61962;SDS011;47927;42.646;23.096;2022-08-19T14:35:35;6.57;;;3.08;;
61962;SDS011;47927;42.646;23.096;2022-08-19T14:38:03;15.30;;;3.83;;
61962;SDS011;47927;42.646;23.096;2022-08-19T14:40:30;9.13;;;3.65;;
61962;SDS011;47927;42.646;23.096;2022-08-19T14:42:58;10.05;;;3.28;;
61962;SDS011;47927;42.646;23.096;2022-08-19T14:45:27;8.00;;;2.92;;
61962;SDS011;47927;42.646;23.096;2022-08-19T14:47:53;6.22;;;2.85;;
61962;SDS011;47927;42.646;23.096;2022-08-19T14:50:19;8.15;;;3.15;;
61962;SDS011;47927;42.646;23.096;2022-08-19T14:52:46;9.30;;;3.50;;